Time;durP1;ratioP1;P1;durP2;ratioP2;P2;SDS_P1;SDS_P2;PMS_P1;PMS_P2;Temp;Humidity;BMP_temperature;BMP_pressure;BME280_temperature;BME280_humidity;BME280_pressure;Samples;Min_cycle;Max_cycle;Signal;HPM_P1;HPM_P2
2023/12/30 00:02:32;;;;;;;;;;;;;;;;;;4224308;28;2234;-74
2023/12/30 00:04:53;;;;;;;;;;;;;;;;;;4202941;28;1048;-73
2023/12/30 00:07:14;;;;;;;;;;;;;;;;;;4204701;28;1049;-73
2023/12/30 00:09:34;;;;;;;;;;;;;;;;;;4218502;28;1155;-73
2023/12/30 00:11:56;;;;;;;;;;;;;;;;;;4219315;28;1563;-74
2023/12/30 00:14:16;;;;;;;;;;;;;;;;;;4221663;28;761;-73
2023/12/30 00:16:39;;;;;;;;;;;;;;;;;;4220795;28;1347;-73
2023/12/30 00:19:00;;;;;;;;;;;;;;;;;;4219933;28;1488;-73
2023/12/30 00:21:21;;;;;;;;;;;;;;;;;;4220289;28;1719;-73
2023/12/30 00:23:42;;;;;;;;;;;;;;;;;;4221039;28;1260;-73
2023/12/30 00:26:03;;;;;;;;;;;;;;;;;;4219696;28;1913;-73
2023/12/30 00:28:24;;;;;;;;;;;;;;;;;;4221294;28;1440;-73
2023/12/30 00:30:46;;;;;;;;;;;;;;;;;;4220471;28;1840;-73
2023/12/30 00:33:07;;;;;;;;;;;;;;;;;;4220929;28;1520;-73
2023/12/30 00:35:28;;;;;;;;;;;;;;;;;;4219178;28;1104;-73
2023/12/30 00:37:49;;;;;;;;;;;;;;;;;;4220897;28;1115;-73
2023/12/30 00:40:10;;;;;;;;;;;;;;;;;;4219037;28;1831;-73
2023/12/30 00:42:30;;;;;;;;;;;;;;;;;;4219880;28;1425;-73
2023/12/30 00:44:52;;;;;;;;;;;;;;;;;;4220807;28;815;-73
2023/12/30 00:47:12;;;;;;;;;;;;;;;;;;4205326;28;1987;-73
2023/12/30 00:49:33;;;;;;;;;;;;;;;;;;4220676;28;1505;-73
2023/12/30 00:51:53;;;;;;;;;;;;;;;;;;4220356;28;1495;-73
2023/12/30 00:54:14;;;;;;;;;;;;;;;;;;4219065;28;938;-73
2023/12/30 00:56:35;;;;;;;;;;;;;;;;;;4219553;28;861;-73
2023/12/30 00:58:56;;;;;;;;;;;;;;;;;;4220515;28;1480;-73
2023/12/30 01:01:17;;;;;;;;;;;;;;;;;;4219346;28;1551;-73
2023/12/30 01:03:37;;;;;;;;;;;;;;;;;;4219883;28;1450;-73
2023/12/30 01:06:00;;;;;;;;;;;;;;;;;;4218996;28;1905;-73
2023/12/30 01:08:21;;;;;;;;;;;;;;;;;;4220043;28;1331;-73
2023/12/30 01:10:42;;;;;;;;;;;;;;;;;;4219482;28;1950;-73
2023/12/30 01:13:03;;;;;;;;;;;;;;;;;;4220315;28;1629;-73
2023/12/30 01:15:23;;;;;;;;;;;;;;;;;;4219489;28;944;-73
2023/12/30 01:17:44;;;;;;;;;;;;;;;;;;4220460;28;851;-73
2023/12/30 01:20:04;;;;;;;;;;;;;;;;;;4219145;28;1462;-73
2023/12/30 01:22:25;;;;;;;;;;;;;;;;;;4220128;28;1210;-73
2023/12/30 01:24:47;;;;;;;;;;;;;;;;;;4220127;28;779;-73
2023/12/30 01:27:08;;;;;;;;;;;;;;;;;;4218981;28;1980;-73
2023/12/30 01:29:29;;;;;;;;;;;;;;;;;;4220068;28;1492;-73
2023/12/30 01:31:50;;;;;;;;;;;;;;;;;;4218873;28;2082;-73
2023/12/30 01:34:10;;;;;;;;;;;;;;;;;;4219797;28;1187;-73
2023/12/30 01:36:31;;;;;;;;;;;;;;;;;;4219138;28;871;-73
2023/12/30 01:38:52;;;;;;;;;;;;;;;;;;4219969;28;1483;-73
2023/12/30 01:41:13;;;;;;;;;;;;;;;;;;4220263;28;1686;-74
2023/12/30 01:43:33;;;;;;;;;;;;;;;;;;4220183;28;1509;-73
2023/12/30 01:45:54;;;;;;;;;;;;;;;;;;4219064;28;1992;-73
2023/12/30 01:48:15;;;;;;;;;;;;;;;;;;4219249;28;848;-73
2023/12/30 01:50:36;;;;;;;;;;;;;;;;;;4219652;28;1579;-73
2023/12/30 01:52:57;;;;;;;;;;;;;;;;;;4219235;28;1611;-73
2023/12/30 01:55:17;;;;;;;;;;;;;;;;;;4222855;28;1536;-73
2023/12/30 01:57:40;;;;;;;;;;;;;;;;;;4221321;28;829;-73
2023/12/30 02:00:01;;;;;;;;;;;;;;;;;;4220736;28;1209;-73
2023/12/30 02:02:50;;;;;;;;;;;;;;;;;;4218659;28;4059;-73
2023/12/30 02:05:11;;;;;;;;;;;;;;;;;;4222131;28;2029;-73
2023/12/30 02:07:31;;;;;;;;;;;;;;;;;;4222620;28;1917;-73
2023/12/30 02:09:53;;;;;;;;;;;;;;;;;;4222192;28;921;-73
2023/12/30 02:12:13;;;;;;;;;;;;;;;;;;4221822;28;799;-73
2023/12/30 02:14:35;;;;;;;;;;;;;;;;;;4221669;28;2251;-73
2023/12/30 02:16:55;;;;;;;;;;;;;;;;;;4221506;28;778;-72
2023/12/30 02:19:17;;;;;;;;;;;;;;;;;;4221636;28;780;-72
2023/12/30 02:21:38;;;;;;;;;;;;;;;;;;4222316;28;1115;-72
2023/12/30 02:24:00;;;;;;;;;;;;;;;;;;4222167;28;2531;-72
2023/12/30 02:26:23;;;;;;;;;;;;;;;;;;4222610;28;1911;-72
2023/12/30 02:28:46;;;;;;;;;;;;;;;;;;4221247;28;769;-73
2023/12/30 02:31:06;;;;;;;;;;;;;;;;;;4221169;28;976;-72
2023/12/30 02:33:27;;;;;;;;;;;;;;;;;;4220461;28;2635;-72
2023/12/30 02:35:48;;;;;;;;;;;;;;;;;;4221945;28;1755;-72
2023/12/30 02:38:09;;;;;;;;;;;;;;;;;;4222335;28;934;-72
2023/12/30 02:40:30;;;;;;;;;;;;;;;;;;4222130;28;1034;-72
2023/12/30 02:42:51;;;;;;;;;;;;;;;;;;4221988;28;859;-72
2023/12/30 02:45:12;;;;;;;;;;;;;;;;;;4221780;28;1838;-72
2023/12/30 02:47:33;;;;;;;;;;;;;;;;;;4221212;28;1905;-72
2023/12/30 02:49:53;;;;;;;;;;;;;;;;;;4221253;28;914;-72
2023/12/30 02:52:14;;;;;;;;;;;;;;;;;;4220732;28;935;-72
2023/12/30 02:54:35;;;;;;;;;;;;;;;;;;4221928;28;1714;-72
2023/12/30 02:56:57;;;;;;;;;;;;;;;;;;4221976;28;1509;-72
2023/12/30 02:59:17;;;;;;;;;;;;;;;;;;4221843;28;817;-72
2023/12/30 03:01:39;;;;;;;;;;;;;;;;;;4220702;28;1017;-72
2023/12/30 03:03:59;;;;;;;;;;;;;;;;;;4222074;28;1732;-72
2023/12/30 03:06:19;;;;;;;;;;;;;;;;;;4221008;28;1119;-72
2023/12/30 03:08:40;;;;;;;;;;;;;;;;;;4222126;28;832;-72
2023/12/30 03:11:02;;;;;;;;;;;;;;;;;;4222032;28;793;-72
2023/12/30 03:13:23;;;;;;;;;;;;;;;;;;4221614;28;1824;-72
2023/12/30 03:15:43;;;;;;;;;;;;;;;;;;4221188;28;1810;-72
2023/12/30 03:18:04;;;;;;;;;;;;;;;;;;4220850;28;826;-72
2023/12/30 03:20:25;;;;;;;;;;;;;;;;;;4221087;28;980;-72
2023/12/30 03:22:46;;;;;;;;;;;;;;;;;;4221744;28;798;-72
2023/12/30 03:25:07;;;;;;;;;;;;;;;;;;4219818;28;1799;-72
2023/12/30 03:27:28;;;;;;;;;;;;;;;;;;4221565;28;1967;-72
2023/12/30 03:29:49;;;;;;;;;;;;;;;;;;4221267;28;933;-72
2023/12/30 03:32:10;;;;;;;;;;;;;;;;;;4220100;28;1061;-72
2023/12/30 03:34:33;;;;;;;;;;;;;;;;;;4220307;28;1591;-72
2023/12/30 03:36:55;;;;;;;;;;;;;;;;;;4220005;28;957;-72
2023/12/30 03:39:16;;;;;;;;;;;;;;;;;;4220579;28;900;-72
2023/12/30 03:41:37;;;;;;;;;;;;;;;;;;4206088;28;810;-72
2023/12/30 03:43:58;;;;;;;;;;;;;;;;;;4220869;28;2128;-72
2023/12/30 03:46:19;;;;;;;;;;;;;;;;;;4220422;28;2036;-72
2023/12/30 03:48:41;;;;;;;;;;;;;;;;;;4220035;28;1065;-72
2023/12/30 03:51:02;;;;;;;;;;;;;;;;;;4220135;28;995;-72
2023/12/30 03:53:22;;;;;;;;;;;;;;;;;;4221190;28;847;-72
2023/12/30 03:55:45;;;;;;;;;;;;;;;;;;4205588;28;1468;-72
2023/12/30 03:58:06;;;;;;;;;;;;;;;;;;4204885;28;1081;-72
2023/12/30 04:00:26;;;;;;;;;;;;;;;;;;4221196;28;822;-72
2023/12/30 04:02:48;;;;;;;;;;;;;;;;;;4220217;28;845;-72
2023/12/30 04:05:08;;;;;;;;;;;;;;;;;;4219713;28;1969;-72
2023/12/30 04:07:29;;;;;;;;;;;;;;;;;;4220931;28;1983;-72
2023/12/30 04:09:50;;;;;;;;;;;;;;;;;;4221199;28;949;-72
2023/12/30 04:12:12;;;;;;;;;;;;;;;;;;4219450;28;1104;-72
2023/12/30 04:14:32;;;;;;;;;;;;;;;;;;4220998;28;1807;-72
2023/12/30 04:16:53;;;;;;;;;;;;;;;;;;4219108;28;827;-72
2023/12/30 04:19:14;;;;;;;;;;;;;;;;;;4205521;28;759;-72
2023/12/30 04:21:35;;;;;;;;;;;;;;;;;;4219302;28;1006;-72
2023/12/30 04:23:56;;;;;;;;;;;;;;;;;;4219854;28;1729;-72
2023/12/30 04:26:17;;;;;;;;;;;;;;;;;;4220432;28;1852;-72
2023/12/30 04:28:37;;;;;;;;;;;;;;;;;;4218887;28;1913;-72
2023/12/30 04:30:59;;;;;;;;;;;;;;;;;;4220672;28;1183;-72
2023/12/30 04:33:20;;;;;;;;;;;;;;;;;;4220903;28;847;-72
2023/12/30 04:35:42;;;;;;;;;;;;;;;;;;4220367;28;1595;-72
2023/12/30 04:38:02;;;;;;;;;;;;;;;;;;4219818;28;1100;-72
2023/12/30 04:40:23;;;;;;;;;;;;;;;;;;4219689;28;851;-72
2023/12/30 04:42:44;;;;;;;;;;;;;;;;;;4219308;28;1029;-72
2023/12/30 04:45:05;;;;;;;;;;;;;;;;;;4219453;28;1532;-72
2023/12/30 04:47:25;;;;;;;;;;;;;;;;;;4220580;28;1970;-72
2023/12/30 04:49:46;;;;;;;;;;;;;;;;;;4219738;28;961;-72
2023/12/30 04:52:09;;;;;;;;;;;;;;;;;;4219311;28;963;-72
2023/12/30 04:54:31;;;;;;;;;;;;;;;;;;4218913;28;1974;-72
2023/12/30 04:56:52;;;;;;;;;;;;;;;;;;4220678;28;1723;-72
2023/12/30 04:59:13;;;;;;;;;;;;;;;;;;4219044;28;1307;-72
2023/12/30 05:01:34;;;;;;;;;;;;;;;;;;4220400;28;965;-72
2023/12/30 05:03:55;;;;;;;;;;;;;;;;;;4219771;28;768;-72
2023/12/30 05:06:16;;;;;;;;;;;;;;;;;;4219200;28;1896;-72
2023/12/30 05:08:37;;;;;;;;;;;;;;;;;;4220464;28;1910;-72
2023/12/30 05:10:58;;;;;;;;;;;;;;;;;;4220518;28;873;-72
2023/12/30 05:13:19;;;;;;;;;;;;;;;;;;4220482;28;1172;-72
2023/12/30 05:15:40;;;;;;;;;;;;;;;;;;4219581;28;1751;-72
2023/12/30 05:18:01;;;;;;;;;;;;;;;;;;4219363;28;923;-72
2023/12/30 05:20:22;;;;;;;;;;;;;;;;;;4220461;28;860;-72
2023/12/30 05:22:43;;;;;;;;;;;;;;;;;;4220011;28;972;-72
2023/12/30 05:25:03;;;;;;;;;;;;;;;;;;4220138;28;1717;-72
2023/12/30 05:27:24;;;;;;;;;;;;;;;;;;4219229;28;1914;-72
2023/12/30 05:29:45;;;;;;;;;;;;;;;;;;4219150;28;790;-72
2023/12/30 05:32:06;;;;;;;;;;;;;;;;;;4218577;28;889;-72
2023/12/30 05:34:26;;;;;;;;;;;;;;;;;;4219878;28;1538;-72
2023/12/30 05:36:47;;;;;;;;;;;;;;;;;;4220223;28;1735;-72
2023/12/30 05:39:08;;;;;;;;;;;;;;;;;;4219815;28;934;-72
2023/12/30 05:41:29;;;;;;;;;;;;;;;;;;4219609;28;950;-71
2023/12/30 05:43:51;;;;;;;;;;;;;;;;;;4220278;28;856;-71
2023/12/30 05:46:11;;;;;;;;;;;;;;;;;;4218926;28;1728;-72
2023/12/30 05:48:32;;;;;;;;;;;;;;;;;;4219783;28;1987;-72
2023/12/30 05:50:53;;;;;;;;;;;;;;;;;;4219096;28;934;-72
2023/12/30 05:53:15;;;;;;;;;;;;;;;;;;4219800;28;1084;-72
2023/12/30 05:55:36;;;;;;;;;;;;;;;;;;4218024;28;1607;-72
2023/12/30 05:57:56;;;;;;;;;;;;;;;;;;4218728;28;829;-71
2023/12/30 06:00:19;;;;;;;;;;;;;;;;;;4220003;28;975;-71
2023/12/30 06:02:40;;;;;;;;;;;;;;;;;;4220090;28;792;-72
2023/12/30 06:05:00;;;;;;;;;;;;;;;;;;4218017;28;1499;-71
2023/12/30 06:07:21;;;;;;;;;;;;;;;;;;4219542;28;1826;-71
2023/12/30 06:09:42;;;;;;;;;;;;;;;;;;4219929;28;926;-71
2023/12/30 06:12:03;;;;;;;;;;;;;;;;;;4219974;28;796;-72
2023/12/30 06:14:24;;;;;;;;;;;;;;;;;;4220083;28;835;-72
2023/12/30 06:16:45;;;;;;;;;;;;;;;;;;4219629;28;1735;-71
2023/12/30 06:19:06;;;;;;;;;;;;;;;;;;4219798;28;962;-71
2023/12/30 06:21:27;;;;;;;;;;;;;;;;;;4219796;28;751;-72
2023/12/30 06:23:48;;;;;;;;;;;;;;;;;;4219644;28;936;-72
2023/12/30 06:26:09;;;;;;;;;;;;;;;;;;4219567;28;1592;-72
2023/12/30 06:28:30;;;;;;;;;;;;;;;;;;4219632;28;1980;-72
2023/12/30 06:30:52;;;;;;;;;;;;;;;;;;4219622;28;976;-72
2023/12/30 06:33:12;;;;;;;;;;;;;;;;;;4218103;28;985;-72
2023/12/30 06:35:34;;;;;;;;;;;;;;;;;;4219097;28;1150;-72
2023/12/30 06:37:56;;;;;;;;;;;;;;;;;;4218466;28;861;-72
2023/12/30 06:40:18;;;;;;;;;;;;;;;;;;4220233;28;1225;-72
2023/12/30 06:42:39;;;;;;;;;;;;;;;;;;4222131;28;966;-72
2023/12/30 06:45:00;;;;;;;;;;;;;;;;;;4222361;28;1711;-72
2023/12/30 06:47:21;;;;;;;;;;;;;;;;;;4222416;28;1988;-72
2023/12/30 06:49:40;;;;;;;;;;;;;;;;;;4222472;28;2008;-72
2023/12/30 06:52:01;;;;;;;;;;;;;;;;;;4222015;28;1186;-72
2023/12/30 06:54:22;;;;;;;;;;;;;;;;;;4222479;28;836;-72
2023/12/30 06:56:44;;;;;;;;;;;;;;;;;;4222075;28;1493;-72
2023/12/30 06:59:05;;;;;;;;;;;;;;;;;;4221437;28;825;-72
2023/12/30 07:01:26;;;;;;;;;;;;;;;;;;4221881;28;955;-72
2023/12/30 07:03:47;;;;;;;;;;;;;;;;;;4221190;28;1071;-72
2023/12/30 07:06:08;;;;;;;;;;;;;;;;;;4220407;28;2081;-72
2023/12/30 07:08:28;;;;;;;;;;;;;;;;;;4222119;28;1902;-72
2023/12/30 07:10:49;;;;;;;;;;;;;;;;;;4221429;28;1001;-72
2023/12/30 07:13:10;;;;;;;;;;;;;;;;;;4222139;28;758;-72
2023/12/30 07:15:31;;;;;;;;;;;;;;;;;;4221800;28;1978;-72
2023/12/30 07:17:52;;;;;;;;;;;;;;;;;;4220569;28;1585;-72
2023/12/30 07:20:13;;;;;;;;;;;;;;;;;;4221983;28;821;-72
2023/12/30 07:22:34;;;;;;;;;;;;;;;;;;4222656;28;918;-72
2023/12/30 07:24:55;;;;;;;;;;;;;;;;;;4222105;28;999;-72
2023/12/30 07:27:16;;;;;;;;;;;;;;;;;;4212739;28;1553;-72
2023/12/30 07:29:36;;;;;;;;;;;;;;;;;;4222000;28;1906;-70
2023/12/30 07:31:58;;;;;;;;;;;;;;;;;;4222275;28;921;-73
2023/12/30 07:34:20;;;;;;;;;;;;;;;;;;4219893;28;981;-72
2023/12/30 07:36:40;;;;;;;;;;;;;;;;;;4221419;28;2110;-72
2023/12/30 07:39:03;;;;;;;;;;;;;;;;;;4221999;28;1156;-72
2023/12/30 07:41:23;;;;;;;;;;;;;;;;;;4221805;28;863;-72
2023/12/30 07:43:44;;;;;;;;;;;;;;;;;;4221864;28;742;-72
2023/12/30 07:46:06;;;;;;;;;;;;;;;;;;4221561;28;1793;-74
2023/12/30 07:48:29;;;;;;;;;;;;;;;;;;4220266;28;1938;-74
2023/12/30 07:50:49;;;;;;;;;;;;;;;;;;4221200;28;1134;-74
2023/12/30 07:53:11;;;;;;;;;;;;;;;;;;4216349;28;1894;-74
2023/12/30 07:55:32;;;;;;;;;;;;;;;;;;4220764;28;1830;-74
2023/12/30 07:57:53;;;;;;;;;;;;;;;;;;4218174;28;1487;-74
2023/12/30 08:00:14;;;;;;;;;;;;;;;;;;4217259;28;1564;-74
2023/12/30 08:02:35;;;;;;;;;;;;;;;;;;4218637;28;1511;-74
2023/12/30 08:04:57;;;;;;;;;;;;;;;;;;4218804;28;1471;-74
2023/12/30 08:07:19;;;;;;;;;;;;;;;;;;4220173;28;1736;-74
2023/12/30 08:09:40;;;;;;;;;;;;;;;;;;4219815;28;1969;-73
2023/12/30 08:12:01;;;;;;;;;;;;;;;;;;4221455;28;861;-74
2023/12/30 08:14:22;;;;;;;;;;;;;;;;;;4221423;28;845;-73
2023/12/30 08:16:43;;;;;;;;;;;;;;;;;;4220868;28;1394;-71
2023/12/30 08:19:03;;;;;;;;;;;;;;;;;;4221325;28;1008;-72
2023/12/30 08:21:24;;;;;;;;;;;;;;;;;;4221499;28;852;-73
2023/12/30 08:23:45;;;;;;;;;;;;;;;;;;4221288;28;754;-72
2023/12/30 08:26:06;;;;;;;;;;;;;;;;;;4221032;28;2040;-73
2023/12/30 08:28:26;;;;;;;;;;;;;;;;;;4220933;28;1973;-73
2023/12/30 08:30:47;;;;;;;;;;;;;;;;;;4221228;28;809;-73
2023/12/30 08:33:09;;;;;;;;;;;;;;;;;;4220949;28;773;-73
2023/12/30 08:35:30;;;;;;;;;;;;;;;;;;4220916;28;965;-73
2023/12/30 08:37:51;;;;;;;;;;;;;;;;;;4220354;28;1452;-73
2023/12/30 08:40:14;;;;;;;;;;;;;;;;;;4220994;28;775;-73
2023/12/30 08:42:35;;;;;;;;;;;;;;;;;;4218423;28;1656;-73
2023/12/30 08:44:58;;;;;;;;;;;;;;;;;;4215746;28;966;-74
2023/12/30 08:47:19;;;;;;;;;;;;;;;;;;4220512;28;1796;-73
2023/12/30 08:49:40;;;;;;;;;;;;;;;;;;4220747;28;2010;-73
2023/12/30 08:52:01;;;;;;;;;;;;;;;;;;4220750;28;846;-73
2023/12/30 08:54:22;;;;;;;;;;;;;;;;;;4248400;27;855;-73
2023/12/30 08:56:43;;;;;;;;;;;;;;;;;;4220531;28;2077;-74
2023/12/30 08:59:04;;;;;;;;;;;;;;;;;;4220553;28;1135;-73
2023/12/30 09:01:24;;;;;;;;;;;;;;;;;;4219939;28;1219;-73
2023/12/30 09:03:46;;;;;;;;;;;;;;;;;;4220068;28;798;-73
2023/12/30 09:06:08;;;;;;;;;;;;;;;;;;4219066;28;1818;-73
2023/12/30 09:08:29;;;;;;;;;;;;;;;;;;4220314;28;1533;-73
2023/12/30 09:10:50;;;;;;;;;;;;;;;;;;4220768;28;1045;-73
2023/12/30 09:13:11;;;;;;;;;;;;;;;;;;4220548;28;765;-73
2023/12/30 09:15:33;;;;;;;;;;;;;;;;;;4219592;28;1519;-73
2023/12/30 09:17:55;;;;;;;;;;;;;;;;;;4219670;28;2193;-73
2023/12/30 09:20:16;;;;;;;;;;;;;;;;;;4218189;28;1305;-73
2023/12/30 09:22:36;;;;;;;;;;;;;;;;;;4220417;28;859;-73
2023/12/30 09:24:57;;;;;;;;;;;;;;;;;;4220751;28;855;-73
2023/12/30 09:27:18;;;;;;;;;;;;;;;;;;4219949;28;1993;-73
2023/12/30 09:29:40;;;;;;;;;;;;;;;;;;4219162;28;1906;-73
2023/12/30 09:32:01;;;;;;;;;;;;;;;;;;4218518;28;1169;-73
2023/12/30 09:34:21;;;;;;;;;;;;;;;;;;4219349;28;1275;-73
2023/12/30 09:36:42;;;;;;;;;;;;;;;;;;4220284;28;2070;-73
2023/12/30 09:39:04;;;;;;;;;;;;;;;;;;4219401;28;1456;-73
2023/12/30 09:41:25;;;;;;;;;;;;;;;;;;4218965;28;794;-73
2023/12/30 09:43:45;;;;;;;;;;;;;;;;;;4219904;28;810;-73
2023/12/30 09:46:06;;;;;;;;;;;;;;;;;;4218343;28;1049;-74
2023/12/30 09:48:26;;;;;;;;;;;;;;;;;;4219850;28;1422;-73
2023/12/30 09:50:48;;;;;;;;;;;;;;;;;;4220014;28;1991;-73
2023/12/30 09:53:08;;;;;;;;;;;;;;;;;;4218280;28;1516;-73
2023/12/30 09:55:30;;;;;;;;;;;;;;;;;;4219476;28;865;-73
2023/12/30 09:57:50;;;;;;;;;;;;;;;;;;4219490;28;1663;-73
2023/12/30 10:00:11;;;;;;;;;;;;;;;;;;4219534;28;945;-73
2023/12/30 10:02:32;;;;;;;;;;;;;;;;;;4219971;28;1466;-73
2023/12/30 10:04:53;;;;;;;;;;;;;;;;;;4220028;28;840;-73
2023/12/30 10:07:14;;;;;;;;;;;;;;;;;;4219995;28;1714;-73
2023/12/30 10:09:35;;;;;;;;;;;;;;;;;;4219828;28;1909;-73
2023/12/30 10:11:56;;;;;;;;;;;;;;;;;;4219968;28;804;-73
2023/12/30 10:14:17;;;;;;;;;;;;;;;;;;4219155;28;1456;-73
2023/12/30 10:16:38;;;;;;;;;;;;;;;;;;4222127;28;2058;-73
2023/12/30 10:18:59;;;;;;;;;;;;;;;;;;4222543;28;1453;-73
2023/12/30 10:21:20;;;;;;;;;;;;;;;;;;4222746;28;1171;-73
2023/12/30 10:23:42;;;;;;;;;;;;;;;;;;4222483;28;1087;-73
2023/12/30 10:26:03;;;;;;;;;;;;;;;;;;4222929;28;850;-73
2023/12/30 10:28:24;;;;;;;;;;;;;;;;;;4222532;28;1768;-73
2023/12/30 10:30:47;;;;;;;;;;;;;;;;;;4222548;28;1981;-73
2023/12/30 10:33:08;;;;;;;;;;;;;;;;;;4222769;28;1556;-73
2023/12/30 10:35:29;;;;;;;;;;;;;;;;;;4222507;28;985;-73
2023/12/30 10:37:52;;;;;;;;;;;;;;;;;;4221568;28;1527;-73
2023/12/30 10:40:13;;;;;;;;;;;;;;;;;;4222361;28;1722;-73
2023/12/30 10:42:34;;;;;;;;;;;;;;;;;;4221743;28;1019;-73
2023/12/30 10:44:54;;;;;;;;;;;;;;;;;;4205619;28;864;-73
2023/12/30 10:47:16;;;;;;;;;;;;;;;;;;4220995;28;2097;-73
2023/12/30 10:49:36;;;;;;;;;;;;;;;;;;4222211;28;1975;-73
2023/12/30 10:51:57;;;;;;;;;;;;;;;;;;4221377;28;893;-73
2023/12/30 10:54:19;;;;;;;;;;;;;;;;;;4221158;28;1477;-73
2023/12/30 10:56:41;;;;;;;;;;;;;;;;;;4222209;28;773;-73
2023/12/30 10:59:02;;;;;;;;;;;;;;;;;;4215137;28;1232;-73
2023/12/30 11:01:22;;;;;;;;;;;;;;;;;;4221174;28;842;-73
2023/12/30 11:03:43;;;;;;;;;;;;;;;;;;4221860;28;1480;-74
2023/12/30 11:06:04;;;;;;;;;;;;;;;;;;4222220;28;943;-73
2023/12/30 11:08:25;;;;;;;;;;;;;;;;;;4221961;28;1946;-73
2023/12/30 11:10:46;;;;;;;;;;;;;;;;;;4221564;28;1902;-74
2023/12/30 11:13:07;;;;;;;;;;;;;;;;;;4222063;28;1453;-74
2023/12/30 11:15:29;;;;;;;;;;;;;;;;;;4220479;28;912;-74
2023/12/30 11:17:50;;;;;;;;;;;;;;;;;;4221636;28;1808;-73
2023/12/30 11:20:11;;;;;;;;;;;;;;;;;;4221845;28;1454;-74
2023/12/30 11:22:31;;;;;;;;;;;;;;;;;;4222198;28;788;-72
2023/12/30 11:24:52;;;;;;;;;;;;;;;;;;4221994;28;1474;-72
2023/12/30 11:27:13;;;;;;;;;;;;;;;;;;4207428;28;1603;-75
2023/12/30 11:29:35;;;;;;;;;;;;;;;;;;4220982;28;1436;-73
2023/12/30 11:31:57;;;;;;;;;;;;;;;;;;4204613;28;960;-73
2023/12/30 11:34:19;;;;;;;;;;;;;;;;;;4204583;28;758;-74
2023/12/30 11:36:39;;;;;;;;;;;;;;;;;;4204029;28;985;-73
2023/12/30 11:39:00;;;;;;;;;;;;;;;;;;4219627;28;2445;-73
2023/12/30 11:41:22;;;;;;;;;;;;;;;;;;4221072;28;1509;-73
2023/12/30 11:43:43;;;;;;;;;;;;;;;;;;4220165;28;879;-74
2023/12/30 11:46:04;;;;;;;;;;;;;;;;;;4220607;28;1067;-74
2023/12/30 11:48:24;;;;;;;;;;;;;;;;;;4218821;28;1890;-74
2023/12/30 11:50:45;;;;;;;;;;;;;;;;;;4218239;28;1901;-74
2023/12/30 11:53:07;;;;;;;;;;;;;;;;;;4203957;28;1840;-74
2023/12/30 11:55:27;;;;;;;;;;;;;;;;;;4209842;28;2042;-74
2023/12/30 11:57:48;;;;;;;;;;;;;;;;;;4197205;28;1748;-74
2023/12/30 12:00:09;;;;;;;;;;;;;;;;;;4215508;28;1560;-74
2023/12/30 12:02:33;;;;;;;;;;;;;;;;;;4204176;28;1729;-74
2023/12/30 12:04:54;;;;;;;;;;;;;;;;;;4205036;28;1729;-73
2023/12/30 12:07:15;;;;;;;;;;;;;;;;;;4203940;28;2012;-73
2023/12/30 12:09:40;;;;;;;;;;;;;;;;;;4216811;28;1711;-73
2023/12/30 12:12:01;;;;;;;;;;;;;;;;;;4219268;28;1469;-73
2023/12/30 12:14:21;;;;;;;;;;;;;;;;;;4219930;28;985;-74
2023/12/30 12:16:43;;;;;;;;;;;;;;;;;;4203824;28;944;-77
2023/12/30 12:19:05;;;;;;;;;;;;;;;;;;4217825;28;1717;-74
2023/12/30 12:21:26;;;;;;;;;;;;;;;;;;4220701;28;1689;-75
2023/12/30 12:23:47;;;;;;;;;;;;;;;;;;4219700;28;966;-76
2023/12/30 12:26:09;;;;;;;;;;;;;;;;;;4218290;28;1673;-76
2023/12/30 12:28:30;;;;;;;;;;;;;;;;;;4225715;28;1475;-76
2023/12/30 12:30:51;;;;;;;;;;;;;;;;;;4218441;28;1985;-75
2023/12/30 12:33:12;;;;;;;;;;;;;;;;;;4204275;28;868;-74
2023/12/30 12:35:33;;;;;;;;;;;;;;;;;;4203998;28;954;-73
2023/12/30 12:37:54;;;;;;;;;;;;;;;;;;4206508;28;1506;-73
2023/12/30 12:40:15;;;;;;;;;;;;;;;;;;4220582;28;1196;-74
2023/12/30 12:42:37;;;;;;;;;;;;;;;;;;4203778;28;1066;-74
2023/12/30 12:44:58;;;;;;;;;;;;;;;;;;4203176;28;845;-74
2023/12/30 12:47:19;;;;;;;;;;;;;;;;;;4203420;28;986;-73
2023/12/30 12:49:40;;;;;;;;;;;;;;;;;;4212136;28;1420;-73
2023/12/30 12:52:01;;;;;;;;;;;;;;;;;;4221407;28;2014;-72
2023/12/30 12:54:22;;;;;;;;;;;;;;;;;;4207786;28;2176;-73
2023/12/30 12:56:43;;;;;;;;;;;;;;;;;;4205233;28;776;-74
2023/12/30 12:59:04;;;;;;;;;;;;;;;;;;4216383;28;1195;-73
2023/12/30 13:01:25;;;;;;;;;;;;;;;;;;4219186;28;1562;-72
2023/12/30 13:03:45;;;;;;;;;;;;;;;;;;4219825;28;778;-72
2023/12/30 13:06:12;;;;;;;;;;;;;;;;;;4219661;28;915;-73
2023/12/30 13:08:34;;;;;;;;;;;;;;;;;;4219916;28;1149;-73
2023/12/30 13:10:54;;;;;;;;;;;;;;;;;;4219655;28;1905;-73
2023/12/30 13:13:15;;;;;;;;;;;;;;;;;;4221112;28;959;-72
2023/12/30 13:15:37;;;;;;;;;;;;;;;;;;4219223;28;974;-72
2023/12/30 13:17:59;;;;;;;;;;;;;;;;;;4220581;28;1491;-73
2023/12/30 13:20:20;;;;;;;;;;;;;;;;;;4220489;28;1460;-72
2023/12/30 13:22:41;;;;;;;;;;;;;;;;;;4220226;28;1140;-73
2023/12/30 13:25:01;;;;;;;;;;;;;;;;;;4220668;28;753;-72
2023/12/30 13:27:23;;;;;;;;;;;;;;;;;;4220428;28;1459;-72
2023/12/30 13:29:44;;;;;;;;;;;;;;;;;;4220232;28;1713;-72
2023/12/30 13:32:05;;;;;;;;;;;;;;;;;;4220008;28;1914;-73
2023/12/30 13:34:28;;;;;;;;;;;;;;;;;;4220799;28;991;-72
2023/12/30 13:36:56;;;;;;;;;;;;;;;;;;4220190;28;1468;-72
2023/12/30 13:39:17;;;;;;;;;;;;;;;;;;4220489;28;1412;-73
2023/12/30 13:41:39;;;;;;;;;;;;;;;;;;4219998;28;1510;-72
2023/12/30 13:44:00;;;;;;;;;;;;;;;;;;4220941;28;830;-72
2023/12/30 13:46:36;;;;;;;;;;;;;;;;;;4221089;28;1455;-73
2023/12/30 13:49:31;;;;;;;;;;;;;;;;;;4220777;28;1536;-73
2023/12/30 13:51:55;;;;;;;;;;;;;;;;;;4215513;28;1909;-74
2023/12/30 13:54:20;;;;;;;;;;;;;;;;;;4223724;28;837;-73
2023/12/30 13:56:42;;;;;;;;;;;;;;;;;;4223291;28;1236;-71
2023/12/30 13:59:08;;;;;;;;;;;;;;;;;;4224775;28;2092;-73
2023/12/30 14:01:32;;;;;;;;;;;;;;;;;;4224506;28;1554;-73
2023/12/30 14:03:55;;;;;;;;;;;;;;;;;;4225099;28;941;-73
2023/12/30 14:06:19;;;;;;;;;;;;;;;;;;4224554;28;1456;-73
2023/12/30 14:08:42;;;;;;;;;;;;;;;;;;4224284;28;1786;-75
2023/12/30 14:11:07;;;;;;;;;;;;;;;;;;4224296;28;1905;-75
2023/12/30 14:13:28;;;;;;;;;;;;;;;;;;4223500;28;1046;-75
2023/12/30 14:15:51;;;;;;;;;;;;;;;;;;4223876;28;943;-75
2023/12/30 14:18:12;;;;;;;;;;;;;;;;;;4222738;28;1158;-74
2023/12/30 14:20:33;;;;;;;;;;;;;;;;;;4222009;28;1529;-73
2023/12/30 14:22:54;;;;;;;;;;;;;;;;;;4222414;28;1150;-73
2023/12/30 14:25:15;;;;;;;;;;;;;;;;;;4222597;28;753;-73
2023/12/30 14:27:36;;;;;;;;;;;;;;;;;;4221492;28;1485;-74
2023/12/30 14:29:58;;;;;;;;;;;;;;;;;;4222347;28;2087;-74
2023/12/30 14:32:20;;;;;;;;;;;;;;;;;;4221406;28;1914;-75
2023/12/30 14:34:42;;;;;;;;;;;;;;;;;;4205297;28;2161;-74
2023/12/30 14:37:04;;;;;;;;;;;;;;;;;;4232555;28;945;-74
2023/12/30 14:39:25;;;;;;;;;;;;;;;;;;4241056;27;1450;-76
2023/12/30 14:41:47;;;;;;;;;;;;;;;;;;4220482;28;1202;-75
2023/12/30 14:44:08;;;;;;;;;;;;;;;;;;4220808;28;1143;-75
2023/12/30 14:46:29;;;;;;;;;;;;;;;;;;4215098;28;1532;-75
2023/12/30 14:48:50;;;;;;;;;;;;;;;;;;4208200;28;1758;-74
2023/12/30 14:51:11;;;;;;;;;;;;;;;;;;4211513;28;1976;-74
2023/12/30 14:53:32;;;;;;;;;;;;;;;;;;4215294;28;1585;-74
2023/12/30 14:55:53;;;;;;;;;;;;;;;;;;4204819;28;1591;-74
2023/12/30 14:58:14;;;;;;;;;;;;;;;;;;4206411;28;1754;-74
2023/12/30 15:00:34;;;;;;;;;;;;;;;;;;4210328;28;1694;-75
2023/12/30 15:02:55;;;;;;;;;;;;;;;;;;4205740;28;1731;-74
2023/12/30 15:05:21;;;;;;;;;;;;;;;;;;4206641;28;1719;-74
2023/12/30 15:07:42;;;;;;;;;;;;;;;;;;4237398;27;1754;-73
2023/12/30 15:10:04;;;;;;;;;;;;;;;;;;4210685;28;1640;-74
2023/12/30 15:12:26;;;;;;;;;;;;;;;;;;4201209;28;1976;-74
2023/12/30 15:14:48;;;;;;;;;;;;;;;;;;4202998;28;1788;-75
2023/12/30 15:17:10;;;;;;;;;;;;;;;;;;4203907;28;1821;-73
2023/12/30 15:19:32;;;;;;;;;;;;;;;;;;4206522;28;2065;-75
2023/12/30 15:21:53;;;;;;;;;;;;;;;;;;4229208;28;1729;-73
2023/12/30 15:24:16;;;;;;;;;;;;;;;;;;4216910;28;1722;-74
2023/12/30 15:26:37;;;;;;;;;;;;;;;;;;4231682;27;1825;-74
2023/12/30 15:28:58;;;;;;;;;;;;;;;;;;4208925;28;1779;-75
2023/12/30 15:31:19;;;;;;;;;;;;;;;;;;4207709;28;1913;-73
2023/12/30 15:33:40;;;;;;;;;;;;;;;;;;4204491;28;1729;-74
2023/12/30 15:36:02;;;;;;;;;;;;;;;;;;4218104;28;1731;-72
2023/12/30 15:38:24;;;;;;;;;;;;;;;;;;4215104;28;1789;-73
2023/12/30 15:40:45;;;;;;;;;;;;;;;;;;4217302;28;1696;-73
2023/12/30 15:43:06;;;;;;;;;;;;;;;;;;4205238;28;1860;-74
2023/12/30 15:45:28;;;;;;;;;;;;;;;;;;4205446;28;1799;-71
2023/12/30 15:47:49;;;;;;;;;;;;;;;;;;4205748;28;1937;-75
2023/12/30 15:50:10;;;;;;;;;;;;;;;;;;4206469;28;1726;-70
2023/12/30 15:52:31;;;;;;;;;;;;;;;;;;4214252;28;1972;-71
2023/12/30 15:54:52;;;;;;;;;;;;;;;;;;4214597;28;1555;-72
2023/12/30 15:57:13;;;;;;;;;;;;;;;;;;4210656;28;1697;-71
2023/12/30 15:59:34;;;;;;;;;;;;;;;;;;4208187;28;2152;-72
2023/12/30 16:01:55;;;;;;;;;;;;;;;;;;4208370;28;1800;-70
2023/12/30 16:04:16;;;;;;;;;;;;;;;;;;4216752;27;1737;-71
2023/12/30 16:06:37;;;;;;;;;;;;;;;;;;4212332;28;1577;-71
2023/12/30 16:08:58;;;;;;;;;;;;;;;;;;4206561;28;1742;-71
2023/12/30 16:11:19;;;;;;;;;;;;;;;;;;4213438;28;1818;-71
2023/12/30 16:13:40;;;;;;;;;;;;;;;;;;4213580;28;1915;-71
2023/12/30 16:16:02;;;;;;;;;;;;;;;;;;4228294;27;2026;-71
2023/12/30 16:18:25;;;;;;;;;;;;;;;;;;4203600;28;1779;-70
2023/12/30 16:20:46;;;;;;;;;;;;;;;;;;4206778;28;1738;-70
2023/12/30 16:23:08;;;;;;;;;;;;;;;;;;4213260;28;1866;-71
2023/12/30 16:25:28;;;;;;;;;;;;;;;;;;4214303;28;1541;-71
2023/12/30 16:27:49;;;;;;;;;;;;;;;;;;4217462;28;1524;-71